• Join FlightAware (Why Join?)
  • Login
  • US Flag 
02:10PM EST


 

Airport Tracker/Info


-or-


 

Live Flight TrackerFlight Track Log ✈ N528QS ✈ 26-Jul-2013 ✈ KSTS - KCRQ

Flight Track Log - Related Links

Times and Time Zones

All times are in EDT time to prevent confusion due to time zone crossing. See the N528QS flight status page for this flight to view local times or setup timezone preferences in your user account.

Time Position Orientation Groundspeed Altitude Reporting Facility
EDT Latitude Longitude Course Direction KTS MPH feet Rate Location/Type
10:09AM 38.4956 -122.8039 164° South 184 212 1,500  Level Oakland Center
10:10AM 38.4378 -122.7822 164° South 242 278 4,600 3,840 Climbing Oakland Center
10:11AM 38.3633 -122.7564 165° South 272 313 9,400 3,720 Climbing Oakland Center
10:12AM 38.2847 -122.7153 158° South 308 354 12,200 3,000 Climbing Oakland Center
10:13AM 38.1892 -122.6106 139° Southeast 371 427 15,600 3,180 Climbing Oakland Center
10:14AM 38.1025 -122.5150 139° Southeast 397 457 18,700 2,820 Climbing Oakland Center
10:15AM 38.0078 -122.4139 140° Southeast 433 498 21,400 1,800 Climbing Oakland Center
10:16AM 37.9153 -122.3122 139° Southeast 433 498 22,500 1,800 Climbing Oakland Center
10:17AM 37.8225 -122.2153 140° Southeast 430 495 25,100 2,280 Climbing Oakland Center
10:18AM 37.7247 -122.1119 140° Southeast 455 524 27,200 2,160 Climbing Oakland Center
10:19AM 37.6233 -122.0033 140° Southeast 473 544 29,600 2,580 Climbing Oakland Center
10:20AM 37.5231 -121.8969 140° Southeast 471 542 32,500 3,000 Climbing Oakland Center
10:21AM 37.4242 -121.7936 140° Southeast 465 535 35,800 2,880 Climbing Oakland Center
10:22AM 37.3350 -121.6972 139° Southeast 446 513 38,500 2,220 Climbing Oakland Center
10:23AM 37.2406 -121.5994 140° Southeast 442 509 40,400 1,200 Climbing Oakland Center
10:24AM 37.1447 -121.4994 140° Southeast 448 516 41,000 240 Climbing Oakland Center
10:25AM 37.0392 -121.3869 140° Southeast 471 542 41,000  Level Oakland Center
10:26AM 36.9383 -121.2836 141° Southeast 470 541 41,000  Level Oakland Center
10:27AM 36.8386 -121.1817 141° Southeast 465 535 41,000  Level Oakland Center
10:28AM 36.7317 -121.0711 140° Southeast 463 533 41,000  Level Oakland Center
10:29AM 36.6308 -120.9681 141° Southeast 466 536 41,000  Level Oakland Center
10:30AM 36.5297 -120.8664 141° Southeast 466 536 41,000  Level Oakland Center
10:31AM 36.4106 -120.7417 140° Southeast 465 535 41,000  Level Oakland Center
10:32AM 36.3097 -120.6400 141° Southeast 467 537 41,000  Level Oakland Center
10:33AM 36.2081 -120.5394 141° Southeast 467 537 41,000  Level Oakland Center
10:34AM 36.1075 -120.4375 141° Southeast 464 534 41,000  Level Oakland Center
10:35AM 36.0061 -120.3356 141° Southeast 467 537 41,000  Level Oakland Center
10:38AM 35.8022 -120.1328 141° Southeast 468 539 41,000  Level Los Angeles Center
10:39AM 35.6808 -120.0108 141° Southeast 466 536 41,000  Level Los Angeles Center
10:40AM 35.5958 -119.9322 143° Southeast 469 540 41,000  Level Oakland Center
10:41AM 35.4869 -119.8392 145° Southeast 470 541 41,000  Level Oakland Center
10:42AM 35.3800 -119.7467 145° Southeast 468 539 41,000  Level Oakland Center
10:43AM 35.2725 -119.6556 145° Southeast 467 537 41,000  Level Oakland Center
10:44AM 35.1436 -119.5467 145° Southeast 467 537 41,000  Level Oakland Center
10:45AM 35.0392 -119.4547 144° Southeast 467 537 41,000 -900 Level Los Angeles Center
10:46AM 34.9103 -119.3475 146° Southeast 467 537 39,100 -1,800 Descending Los Angeles Center
10:47AM 34.8086 -119.2597 145° Southeast 455 524 37,300 -1,800 Descending Los Angeles Center
10:48AM 34.7000 -119.1694 146° Southeast 464 534 35,500 -1,800 Descending Los Angeles Center
10:49AM 34.5875 -119.0767 146° Southeast 476 548 33,600 -1,860 Descending Los Angeles Center
10:50AM 34.4761 -118.9831 145° Southeast 485 558 31,700 -1,920 Descending Los Angeles Center
10:51AM 34.3647 -118.8883 145° Southeast 490 564 29,700 -1,860 Descending Los Angeles Center
10:52AM 34.2617 -118.7822 140° Southeast 485 558 27,900 -1,800 Descending Los Angeles Center
10:53AM 34.1631 -118.6769 139° Southeast 475 547 26,000 -2,100 Descending Los Angeles Center
10:54AM 34.0436 -118.5492 138° Southeast 477 549 23,600 -2,040 Descending Los Angeles Center
10:55AM 33.9383 -118.4678 147° Southeast 460 529 21,800 -1,740 Descending Los Angeles Center
10:56AM 33.8153 -118.4728 182° South 437 503 20,100 -1,500 Descending Los Angeles Center
10:57AM 33.6986 -118.5136 196° South 441 507 18,700 -1,440 Descending Los Angeles Center
10:58AM 33.5692 -118.5500 193° South 394 453 17,200 -1,500 Descending Los Angeles Center
10:59AM 33.4808 -118.5114 160° South 346 398 15,600 -1,500 Descending Los Angeles Center
11:00AM 33.4072 -118.4481 144° Southeast 332 382 14,100 -1,620 Descending Los Angeles Center
11:01AM 33.3647 -118.3450 116° Southeast 348 400 12,300 -1,620 Descending Los Angeles Center
11:02AM 33.3589 -118.2361 94° East 346 398 10,800 -1,440 Descending Los Angeles Center
11:03AM 33.3450 -118.1133 98° East 318 366 9,400 -1,200 Descending Los Angeles Center
11:04AM 33.3311 -118.0178 100° East 297 342 8,400 -1,140 Descending Los Angeles Center
11:05AM 33.3167 -117.9208 100° East 298 343 7,100 -1,500 Descending Los Angeles Center
11:07AM 33.3025 -117.8264 100° East 293 337 5,400 -1,020 Descending Los Angeles Center
11:08AM 33.2886 -117.7325 100° East 290 334 5,000 -240 Descending Los Angeles Center
11:09AM 33.2714 -117.6214 100° East 287 330 5,000 -300 Level Los Angeles Center
11:09AM 33.2667 -117.5500 95° East 287 330 4,500 -660 Descending Southern California TRACON
11:10AM 33.2500 -117.4667 103° East 283 326 4,000 -300 Descending Southern California TRACON
11:11AM 33.2333 -117.3833 103° East 279 321 4,000  Level Southern California TRACON
11:12AM 33.2333 -117.3000 90° East 260 299 4,000  Level Southern California TRACON
11:13AM 33.2333 -117.2167 90° East 212 244 4,000  Level Southern California TRACON
11:14AM 33.2167 -117.1500 107° East 207 238 4,000 -120 Level Southern California TRACON
11:15AM 33.2167 -117.1000 90° East 194 223 3,800 -420 Descending Southern California TRACON
11:16AM 33.1667 -117.1000 180° South 178 205 3,200 -660 Descending Southern California TRACON
11:17AM 33.1500 -117.1500 248° West 171 197 2,500 -780 Descending Southern California TRACON
11:18AM 33.1500 -117.2000 270° West 135 155 1,700 -780 Descending Southern California TRACON
11:19AM 33.1333 -117.2333 239° Southwest 124 143 1,000 -780 Descending Southern California TRACON
11:20AM 33.1333 -117.2667 270° West 123 142 300 -780 Descending Southern California TRACON